createdAt,value
2023-04-19T00:00:22.207Z,99690.22
2023-04-19T00:01:26.486Z,99697.34
2023-04-19T00:02:29.459Z,99704.45
2023-04-19T00:03:32.512Z,99697.67
2023-04-19T00:04:36.902Z,99703.98
2023-04-19T00:05:41.541Z,99689.23
2023-04-19T00:06:44.274Z,99691.83
2023-04-19T00:07:46.827Z,99696.15
2023-04-19T00:08:48.813Z,99690.93
2023-04-19T00:09:51.051Z,99686.64
2023-04-19T00:10:53.827Z,99689.30
2023-04-19T00:11:55.936Z,99692.79
2023-04-19T00:12:58.248Z,99687.54
2023-04-19T00:14:00.347Z,99694.28
2023-04-19T00:15:02.796Z,99693.52
2023-04-19T00:16:06.670Z,99696.05
2023-04-19T00:17:10.816Z,99690.03
2023-04-19T00:18:13.237Z,99697.91
2023-04-19T00:19:15.660Z,99687.54
2023-04-19T00:20:18.165Z,99693.83
2023-04-19T00:21:20.485Z,99688.53
2023-04-19T00:22:22.599Z,99688.57
2023-04-19T00:23:25.304Z,99685.15
2023-04-19T00:24:28.603Z,99686.77
2023-04-19T00:25:31.376Z,99685.84
2023-04-19T00:26:33.943Z,99691.03
2023-04-19T00:27:36.641Z,99680.76
2023-04-19T00:28:38.831Z,99681.72
2023-04-19T00:29:40.926Z,99689.66
2023-04-19T00:30:43.028Z,99681.19
2023-04-19T00:31:46.191Z,99684.58
2023-04-19T00:32:48.742Z,99677.83
2023-04-19T00:33:52.013Z,99680.42
2023-04-19T00:34:54.856Z,99677.03
2023-04-19T00:35:58.236Z,99678.06
2023-04-19T00:37:00.816Z,99679.72
2023-04-19T00:38:02.863Z,99674.77
2023-04-19T00:39:05.501Z,99680.08
2023-04-19T00:40:09.515Z,99672.25
2023-04-19T00:41:12.513Z,99673.14
2023-04-19T00:42:15.339Z,99667.13
2023-04-19T00:43:19.163Z,99669.66
2023-04-19T00:44:21.608Z,99669.05
2023-04-19T00:45:24.815Z,99670.77
2023-04-19T00:46:27.608Z,99668.13
2023-04-19T00:47:30.267Z,99668.13
2023-04-19T00:48:35.779Z,99668.02
2023-04-19T00:49:38.139Z,99680.08
2023-04-19T00:50:43.078Z,99671.52
2023-04-19T00:51:46.662Z,99668.13
2023-04-19T00:52:49.078Z,99662.84
2023-04-19T00:53:52.193Z,99674.90
2023-04-19T00:54:57.666Z,99669.81
2023-04-19T00:56:04.199Z,99671.52
2023-04-19T00:57:06.576Z,99664.53
2023-04-19T00:58:12.037Z,99659.35
2023-04-19T00:59:15.615Z,99655.00
2023-04-19T01:00:19.291Z,99663.64
2023-04-19T01:01:23.108Z,99655.96
2023-04-19T01:02:25.561Z,99660.31
2023-04-19T01:03:28.694Z,99652.57
2023-04-19T01:04:31.614Z,99650.78
2023-04-19T01:05:34.244Z,99653.30
2023-04-19T01:06:38.049Z,99646.46
2023-04-19T01:07:41.152Z,99651.80
2023-04-19T01:08:43.704Z,99649.31
2023-04-19T01:09:46.634Z,99644.20
2023-04-19T01:10:49.528Z,99642.44
2023-04-19T01:11:51.904Z,99648.35
2023-04-19T01:12:53.994Z,99639.98
2023-04-19T01:13:57.966Z,99641.03
2023-04-19T01:15:00.103Z,99646.50
2023-04-19T01:16:02.259Z,99645.64
2023-04-19T01:17:05.226Z,99642.31
2023-04-19T01:18:07.558Z,99644.16
2023-04-19T01:19:09.822Z,99646.02
2023-04-19T01:20:12.941Z,99643.43
2023-04-19T01:21:16.240Z,99648.52
2023-04-19T01:22:23.086Z,99637.13
2023-04-19T01:23:25.864Z,99641.42
2023-04-19T01:24:28.320Z,99647.34
2023-04-19T01:25:30.710Z,99644.91
2023-04-19T01:26:34.974Z,99636.23
2023-04-19T01:27:39.546Z,99644.23
2023-04-19T01:28:41.895Z,99645.92
2023-04-19T01:29:45.396Z,99644.16
2023-04-19T01:30:49.672Z,99645.03
2023-04-19T01:31:53.779Z,99647.62
2023-04-19T01:32:56.238Z,99645.86
2023-04-19T01:33:58.805Z,99647.68
2023-04-19T01:35:01.241Z,99642.44
2023-04-19T01:36:06.319Z,99633.87
2023-04-19T01:37:09.631Z,99639.17
2023-04-19T01:38:11.838Z,99635.72
2023-04-19T01:39:16.273Z,99634.77
2023-04-19T01:40:19.887Z,99636.46
2023-04-19T01:41:24.038Z,99633.20
2023-04-19T01:42:26.638Z,99638.31
2023-04-19T01:43:29.257Z,99634.89
2023-04-19T01:44:31.618Z,99632.33
2023-04-19T01:45:37.399Z,99640.16
2023-04-19T01:46:42.135Z,99632.33
2023-04-19T01:47:45.291Z,99633.27
2023-04-19T01:48:47.460Z,99631.50
2023-04-19T01:49:50.432Z,99635.94
2023-04-19T01:50:53.179Z,99628.39
2023-04-19T01:51:55.653Z,99636.16
2023-04-19T01:52:58.369Z,99630.92
2023-04-19T01:54:02.129Z,99633.52
2023-04-19T01:55:05.075Z,99624.17
2023-04-19T01:56:10.452Z,99631.05
2023-04-19T01:57:13.321Z,99620.72
2023-04-19T01:58:15.993Z,99623.31
2023-04-19T01:59:18.116Z,99626.64
2023-04-19T02:00:21.698Z,99625.06
2023-04-19T02:01:24.147Z,99621.59
2023-04-19T02:02:27.260Z,99626.64
2023-04-19T02:03:30.536Z,99621.45
2023-04-19T02:04:36.363Z,99624.97
2023-04-19T02:05:40.465Z,99630.03
2023-04-19T02:06:42.908Z,99623.16
2023-04-19T02:07:45.517Z,99626.64
2023-04-19T02:08:48.929Z,99622.26
2023-04-19T02:09:51.385Z,99623.09
2023-04-19T02:10:55.219Z,99616.19
2023-04-19T02:11:58.576Z,99624.97
2023-04-19T02:13:02.005Z,99612.06
2023-04-19T02:14:05.039Z,99611.54
2023-04-19T02:15:08.137Z,99611.54
2023-04-19T02:16:11.906Z,99616.84
2023-04-19T02:17:14.256Z,99609.32
2023-04-19T02:18:17.021Z,99616.99
2023-04-19T02:19:20.637Z,99616.34
2023-04-19T02:20:23.937Z,99612.59
2023-04-19T02:21:26.906Z,99612.59
2023-04-19T02:22:29.687Z,99614.98
2023-04-19T02:23:32.013Z,99611.45
2023-04-19T02:24:35.379Z,99612.92
2023-04-19T02:25:37.878Z,99616.28
2023-04-19T02:26:40.338Z,99609.22
2023-04-19T02:27:42.791Z,99612.58
2023-04-19T02:28:45.582Z,99609.73
2023-04-19T02:29:48.060Z,99616.61
2023-04-19T02:30:50.491Z,99608.77
2023-04-19T02:31:52.888Z,99615.42
2023-04-19T02:32:55.558Z,99610.02
2023-04-19T02:33:58.142Z,99611.80
2023-04-19T02:35:01.935Z,99614.78
2023-04-19T02:36:05.820Z,99606.84
2023-04-19T02:37:08.958Z,99615.19
2023-04-19T02:38:11.160Z,99611.70
2023-04-19T02:39:14.419Z,99613.41
2023-04-19T02:40:16.974Z,99613.27
2023-04-19T02:41:20.639Z,99614.30
2023-04-19T02:42:23.356Z,99614.30
2023-04-19T02:43:25.993Z,99611.70
2023-04-19T02:44:28.342Z,99614.23
2023-04-19T02:45:30.950Z,99612.44
2023-04-19T02:46:33.287Z,99617.63
2023-04-19T02:47:35.845Z,99619.25
2023-04-19T02:48:38.746Z,99618.45
2023-04-19T02:49:42.119Z,99616.76
2023-04-19T02:50:45.296Z,99614.83
2023-04-19T02:51:47.808Z,99619.12
2023-04-19T02:52:50.260Z,99613.05
2023-04-19T02:53:53.034Z,99618.17
2023-04-19T02:54:55.760Z,99615.42
2023-04-19T02:55:58.256Z,99624.82
2023-04-19T02:57:01.297Z,99623.28
2023-04-19T02:58:04.943Z,99622.52
2023-04-19T02:59:08.985Z,99627.70
2023-04-19T03:00:12.885Z,99624.62
2023-04-19T03:01:17.552Z,99624.91
2023-04-19T03:02:21.150Z,99616.72
2023-04-19T03:03:23.595Z,99621.80
2023-04-19T03:04:26.500Z,99624.33
2023-04-19T03:05:29.358Z,99621.67
2023-04-19T03:06:32.284Z,99626.77
2023-04-19T03:07:35.491Z,99614.77
2023-04-19T03:08:38.185Z,99615.67
2023-04-19T03:09:41.029Z,99618.10
2023-04-19T03:10:43.724Z,99621.23
2023-04-19T03:11:46.021Z,99622.84
2023-04-19T03:12:48.341Z,99617.75
2023-04-19T03:13:51.061Z,99621.36
2023-04-19T03:14:53.161Z,99614.93
2023-04-19T03:15:56.705Z,99618.25
2023-04-19T03:16:59.128Z,99620.50
2023-04-19T03:18:01.978Z,99625.42
2023-04-19T03:19:06.155Z,99622.71
2023-04-19T03:20:11.930Z,99624.41
2023-04-19T03:21:14.565Z,99621.50
2023-04-19T03:22:18.716Z,99618.17
2023-04-19T03:23:21.605Z,99613.50
2023-04-19T03:24:31.393Z,99618.28
2023-04-19T03:25:35.484Z,99615.86
2023-04-19T03:26:48.739Z,99619.34
2023-04-19T03:27:52.539Z,99615.30
2023-04-19T03:28:56.730Z,99612.67
2023-04-19T03:30:04.754Z,99612.60
2023-04-19T03:31:07.580Z,99608.98
2023-04-19T03:32:11.513Z,99610.68
2023-04-19T03:33:13.976Z,99612.24
2023-04-19T03:34:17.121Z,99608.95
2023-04-19T03:35:23.309Z,99607.36
2023-04-19T03:36:27.276Z,99616.66
2023-04-19T03:37:29.703Z,99608.72
2023-04-19T03:38:32.002Z,99612.67
2023-04-19T03:39:35.248Z,99607.48
2023-04-19T03:40:39.600Z,99603.97
2023-04-19T03:41:42.684Z,99602.34
2023-04-19T03:42:56.060Z,99599.75
2023-04-19T03:44:02.947Z,99603.14
2023-04-19T03:45:06.321Z,99602.50
2023-04-19T03:46:10.505Z,99601.89
2023-04-19T03:47:13.134Z,99600.20
2023-04-19T03:48:17.321Z,99600.88
2023-04-19T03:49:21.232Z,99602.13
2023-04-19T03:50:25.492Z,99601.99
2023-04-19T03:51:30.987Z,99610.47
2023-04-19T03:52:33.413Z,99603.59
2023-04-19T03:53:37.718Z,99604.55
2023-04-19T03:54:40.454Z,99605.70
2023-04-19T03:55:45.316Z,99601.61
2023-04-19T03:56:47.878Z,99607.62
2023-04-19T03:57:50.879Z,99604.13
2023-04-19T03:59:10.329Z,99608.58
2023-04-19T04:00:15.192Z,99606.36
2023-04-19T04:01:18.669Z,99609.10
2023-04-19T04:02:22.112Z,99603.19
2023-04-19T04:03:24.756Z,99605.01
2023-04-19T04:04:28.758Z,99603.16
2023-04-19T04:05:31.842Z,99598.72
2023-04-19T04:06:35.554Z,99607.31
2023-04-19T04:07:37.679Z,99605.01
2023-04-19T04:08:40.189Z,99605.96
2023-04-19T04:09:42.635Z,99602.57
2023-04-19T04:10:45.379Z,99595.64
2023-04-19T04:11:48.675Z,99603.25
2023-04-19T04:12:51.578Z,99610.86
2023-04-19T04:13:56.682Z,99607.22
2023-04-19T04:15:00.893Z,99607.84
2023-04-19T04:16:04.338Z,99607.52
2023-04-19T04:17:07.823Z,99608.87
2023-04-19T04:18:11.161Z,99613.79
2023-04-19T04:19:14.116Z,99604.89
2023-04-19T04:20:18.496Z,99607.13
2023-04-19T04:21:21.966Z,99602.44
2023-04-19T04:22:24.125Z,99605.93
2023-04-19T04:23:27.954Z,99594.67
2023-04-19T04:24:32.572Z,99605.59
2023-04-19T04:25:37.700Z,99610.44
2023-04-19T04:26:41.811Z,99602.36
2023-04-19T04:27:52.057Z,99607.48
2023-04-19T04:28:55.685Z,99597.91
2023-04-19T04:29:58.028Z,99599.46
2023-04-19T04:31:01.042Z,99599.46
2023-04-19T04:32:10.156Z,99597.59
2023-04-19T04:33:15.138Z,99589.05
2023-04-19T04:34:18.184Z,99590.57
2023-04-19T04:35:22.565Z,99599.28
2023-04-19T04:36:28.747Z,99598.24
2023-04-19T04:37:35.362Z,99599.08
2023-04-19T04:38:37.689Z,99597.20
2023-04-19T04:39:40.944Z,99606.27
2023-04-19T04:40:53.546Z,99597.34
2023-04-19T04:41:57.259Z,99599.69
2023-04-19T04:43:02.019Z,99600.48
2023-04-19T04:44:22.558Z,99590.94
2023-04-19T04:45:12.488Z,99595.16
2023-04-19T04:46:15.927Z,99600.34
2023-04-19T04:47:18.850Z,99598.54
2023-04-19T04:48:23.906Z,99600.09
2023-04-19T04:49:26.311Z,99596.60
2023-04-19T04:50:28.843Z,99600.78
2023-04-19T04:51:31.832Z,99605.75
2023-04-19T04:52:34.796Z,99597.79
2023-04-19T04:53:38.930Z,99604.56
2023-04-19T04:54:41.333Z,99604.42
2023-04-19T04:55:46.613Z,99604.30
2023-04-19T04:56:49.624Z,99609.61
2023-04-19T04:57:52.096Z,99609.50
2023-04-19T04:58:57.451Z,99610.94
2023-04-19T05:00:02.786Z,99605.86
2023-04-19T05:01:06.834Z,99608.38
2023-04-19T05:02:11.620Z,99607.41
2023-04-19T05:03:15.979Z,99602.93
2023-04-19T05:04:20.971Z,99609.89
2023-04-19T05:05:23.554Z,99602.75
2023-04-19T05:06:26.345Z,99606.70
2023-04-19T05:07:29.110Z,99610.02
2023-04-19T05:08:33.862Z,99610.08
2023-04-19T05:09:38.083Z,99613.40
2023-04-19T05:10:40.503Z,99614.19
2023-04-19T05:11:44.074Z,99605.88
2023-04-19T05:12:46.482Z,99613.92
2023-04-19T05:13:49.320Z,99603.53
2023-04-19T05:14:53.361Z,99594.95
2023-04-19T05:15:56.748Z,99594.95
2023-04-19T05:17:00.411Z,99601.47
2023-04-19T05:18:03.164Z,99611.84
2023-04-19T05:19:05.536Z,99608.20
2023-04-19T05:20:10.635Z,99605.68
2023-04-19T05:21:13.531Z,99607.41
2023-04-19T05:22:17.515Z,99605.68
2023-04-19T05:23:20.793Z,99612.56
2023-04-19T05:24:23.659Z,99608.80
2023-04-19T05:25:26.908Z,99602.48
2023-04-19T05:26:29.812Z,99602.17
2023-04-19T05:27:32.457Z,99605.33
2023-04-19T05:28:34.671Z,99618.95
2023-04-19T05:29:39.069Z,99612.53
2023-04-19T05:30:42.170Z,99611.55
2023-04-19T05:31:45.244Z,99613.09
2023-04-19T05:32:56.079Z,99619.86
2023-04-19T05:33:58.440Z,99616.20
2023-04-19T05:35:02.333Z,99618.17
2023-04-19T05:36:06.015Z,99616.16
2023-04-19T05:37:08.555Z,99617.93
2023-04-19T05:38:11.309Z,99623.12
2023-04-19T05:39:13.837Z,99618.56
2023-04-19T05:40:18.681Z,99625.17
2023-04-19T05:41:21.706Z,99617.11
2023-04-19T05:42:24.618Z,99622.18
2023-04-19T05:43:27.796Z,99622.69
2023-04-19T05:44:31.158Z,99610.17
2023-04-19T05:45:33.587Z,99616.77
2023-04-19T05:46:36.318Z,99614.59
2023-04-19T05:47:40.245Z,99619.59
2023-04-19T05:49:01.368Z,99614.67
2023-04-19T05:50:22.557Z,99620.03
2023-04-19T05:51:29.870Z,99623.38
2023-04-19T05:52:46.314Z,99618.81
2023-04-19T05:53:49.734Z,99617.48
2023-04-19T05:54:52.309Z,99626.89
2023-04-19T05:55:54.643Z,99618.39
2023-04-19T05:56:57.058Z,99626.06
2023-04-19T05:57:59.466Z,99622.42
2023-04-19T05:59:03.716Z,99618.92
2023-04-19T06:00:09.549Z,99620.66
2023-04-19T06:01:29.600Z,99620.45
2023-04-19T06:02:33.228Z,99619.89
2023-04-19T06:03:36.617Z,99621.26
2023-04-19T06:04:40.655Z,99620.99
2023-04-19T06:05:44.225Z,99615.88
2023-04-19T06:06:47.366Z,99615.88
2023-04-19T06:07:55.758Z,99616.41
2023-04-19T06:08:55.765Z,99616.41
2023-04-19T06:09:58.728Z,99614.42
2023-04-19T06:11:11.524Z,99615.20
2023-04-19T06:12:06.412Z,99614.28
2023-04-19T06:13:08.631Z,99610.91
2023-04-19T06:14:13.055Z,99614.20
2023-04-19T06:15:17.697Z,99614.14
2023-04-19T06:16:20.969Z,99608.69
2023-04-19T06:17:25.568Z,99612.15
2023-04-19T06:18:29.231Z,99610.32
2023-04-19T06:19:33.938Z,99604.94
2023-04-19T06:20:37.537Z,99615.80
2023-04-19T06:21:39.828Z,99604.31
2023-04-19T06:22:44.493Z,99608.13
2023-04-19T06:23:46.579Z,99608.30
2023-04-19T06:24:48.902Z,99602.31
2023-04-19T06:25:51.104Z,99601.41
2023-04-19T06:26:53.809Z,99603.09
2023-04-19T06:27:56.621Z,99607.44
2023-04-19T06:28:59.474Z,99603.92
2023-04-19T06:30:03.597Z,99606.61
2023-04-19T06:31:06.851Z,99603.88
2023-04-19T06:32:11.302Z,99611.59
2023-04-19T06:33:13.706Z,99606.39
2023-04-19T06:34:16.042Z,99609.82
2023-04-19T06:35:18.711Z,99606.47
2023-04-19T06:36:21.057Z,99599.58
2023-04-19T06:37:23.412Z,99607.16
2023-04-19T06:38:26.790Z,99602.79
2023-04-19T06:39:29.046Z,99600.10
2023-04-19T06:40:31.478Z,99593.16
2023-04-19T06:41:33.809Z,99600.80
2023-04-19T06:42:36.055Z,99601.48
2023-04-19T06:43:40.248Z,99600.27
2023-04-19T06:44:42.575Z,99594.70
2023-04-19T06:45:45.023Z,99594.70
2023-04-19T06:46:47.546Z,99592.01
2023-04-19T06:47:49.905Z,99595.39
2023-04-19T06:48:52.111Z,99597.73
2023-04-19T06:49:55.640Z,99593.30
2023-04-19T06:50:58.369Z,99598.28
2023-04-19T06:52:00.726Z,99605.87
2023-04-19T06:53:04.982Z,99592.07
2023-04-19T06:54:07.680Z,99588.55
2023-04-19T06:55:10.443Z,99597.87
2023-04-19T06:56:14.100Z,99597.87
2023-04-19T06:57:18.366Z,99589.92
2023-04-19T06:58:20.983Z,99598.48
2023-04-19T06:59:25.189Z,99594.73
2023-04-19T07:00:27.462Z,99598.79
2023-04-19T07:01:29.832Z,99600.71
2023-04-19T07:02:32.456Z,99605.06
2023-04-19T07:03:36.183Z,99598.25
2023-04-19T07:04:38.778Z,99602.40
2023-04-19T07:05:41.431Z,99590.80
2023-04-19T07:06:43.766Z,99602.08
2023-04-19T07:07:46.076Z,99592.66
2023-04-19T07:08:50.088Z,99592.48
2023-04-19T07:09:52.526Z,99597.37
2023-04-19T07:10:56.115Z,99600.75
2023-04-19T07:11:58.405Z,99591.84
2023-04-19T07:13:00.803Z,99593.38
2023-04-19T07:14:03.561Z,99593.20
2023-04-19T07:15:07.411Z,99594.06
2023-04-19T07:16:10.754Z,99588.77
2023-04-19T07:17:13.827Z,99593.97
2023-04-19T07:18:16.118Z,99594.74
2023-04-19T07:19:20.372Z,99584.08
2023-04-19T07:20:22.778Z,99590.66
2023-04-19T07:21:26.996Z,99580.95
2023-04-19T07:22:29.818Z,99597.07
2023-04-19T07:23:32.587Z,99590.75
2023-04-19T07:24:34.906Z,99596.83
2023-04-19T07:25:37.214Z,99598.33
2023-04-19T07:26:39.979Z,99596.49
2023-04-19T07:27:42.772Z,99593.39
2023-04-19T07:28:45.311Z,99594.90
2023-04-19T07:29:48.324Z,99602.38
2023-04-19T07:30:50.793Z,99595.23
2023-04-19T07:31:55.352Z,99596.00
2023-04-19T07:32:58.412Z,99600.78
2023-04-19T07:34:01.018Z,99603.23
2023-04-19T07:35:03.563Z,99595.79
2023-04-19T07:36:07.401Z,99599.01
2023-04-19T07:37:10.011Z,99599.01
2023-04-19T07:38:12.225Z,99592.86
2023-04-19T07:39:14.655Z,99590.41
2023-04-19T07:40:17.086Z,99599.48
2023-04-19T07:41:19.682Z,99597.29
2023-04-19T07:42:22.079Z,99595.25
2023-04-19T07:43:24.330Z,99589.67
2023-04-19T07:44:28.355Z,99590.70
2023-04-19T07:45:31.317Z,99593.23
2023-04-19T07:46:33.817Z,99593.14
2023-04-19T07:47:36.713Z,99591.86
2023-04-19T07:48:39.374Z,99579.38
2023-04-19T07:49:43.603Z,99586.75
2023-04-19T07:50:46.085Z,99590.02
2023-04-19T07:51:48.785Z,99585.09
2023-04-19T07:52:51.557Z,99589.45
2023-04-19T07:53:54.597Z,99586.84
2023-04-19T07:54:57.408Z,99589.30
2023-04-19T07:55:59.695Z,99587.24
2023-04-19T07:57:02.744Z,99585.39
2023-04-19T07:58:05.124Z,99578.48
2023-04-19T07:59:09.000Z,99581.55
2023-04-19T08:00:12.629Z,99583.14
2023-04-19T08:01:17.343Z,99577.65
2023-04-19T08:02:20.595Z,99585.08
2023-04-19T08:03:23.246Z,99580.58
2023-04-19T08:04:27.059Z,99583.58
2023-04-19T08:05:30.956Z,99579.02
2023-04-19T08:06:33.887Z,99590.50
2023-04-19T08:07:36.275Z,99576.13
2023-04-19T08:08:38.442Z,99581.80
2023-04-19T08:09:41.074Z,99568.02
2023-04-19T08:10:44.269Z,99574.72
2023-04-19T08:11:46.450Z,99571.28
2023-04-19T08:13:03.757Z,99577.81
2023-04-19T08:14:06.696Z,99567.69
2023-04-19T08:15:05.198Z,99573.02
2023-04-19T08:17:24.348Z,99564.69
2023-04-19T08:18:10.781Z,99558.45
2023-04-19T08:19:12.974Z,99562.72
2023-04-19T08:20:15.607Z,99558.34
2023-04-19T08:21:18.161Z,99557.41
2023-04-19T08:22:22.077Z,99568.59
2023-04-19T08:23:31.746Z,99566.17
2023-04-19T08:24:30.696Z,99565.23
2023-04-19T08:25:33.321Z,99562.62
2023-04-19T08:26:35.750Z,99567.64
2023-04-19T08:27:38.403Z,99563.70
2023-04-19T08:28:40.919Z,99567.78
2023-04-19T08:29:43.364Z,99564.05
2023-04-19T08:30:45.709Z,99564.05
2023-04-19T08:31:48.157Z,99556.20
2023-04-19T08:32:56.892Z,99561.03
2023-04-19T08:34:00.748Z,99559.17
2023-04-19T08:35:03.697Z,99563.36
2023-04-19T08:36:07.182Z,99563.06
2023-04-19T08:37:10.633Z,99566.22
2023-04-19T08:38:13.445Z,99556.28
2023-04-19T08:39:29.185Z,99549.92
2023-04-19T08:40:21.693Z,99555.86
2023-04-19T08:41:26.281Z,99565.84
2023-04-19T08:42:36.313Z,99572.36
2023-04-19T08:43:36.690Z,99565.84
2023-04-19T08:44:49.217Z,99561.81
2023-04-19T08:45:51.171Z,99555.75
2023-04-19T08:46:53.957Z,99551.26
2023-04-19T08:48:01.477Z,99560.39
2023-04-19T08:49:07.942Z,99550.56
2023-04-19T08:51:17.559Z,99563.91
2023-04-19T08:52:21.639Z,99555.73
2023-04-19T08:53:26.306Z,99561.48
2023-04-19T08:54:32.183Z,99560.66
2023-04-19T08:55:36.243Z,99565.48
2023-04-19T08:56:39.131Z,99569.45
2023-04-19T08:57:41.802Z,99569.79
2023-04-19T08:59:00.384Z,99564.14
2023-04-19T08:59:50.030Z,99572.83
2023-04-19T09:00:53.377Z,99562.16
2023-04-19T09:01:57.375Z,99568.97
2023-04-19T09:02:59.834Z,99565.94
2023-04-19T09:04:20.812Z,99564.47
2023-04-19T09:05:14.057Z,99568.97
2023-04-19T09:06:17.554Z,99565.94
2023-04-19T09:07:26.704Z,99564.55
2023-04-19T09:08:30.869Z,99566.98
2023-04-19T09:09:43.109Z,99565.41
2023-04-19T09:10:45.218Z,99572.63
2023-04-19T09:11:52.412Z,99559.20
2023-04-19T09:13:03.786Z,99567.17
2023-04-19T09:14:11.758Z,99568.45
2023-04-19T09:15:15.739Z,99561.11
2023-04-19T09:16:25.465Z,99555.67
2023-04-19T09:17:28.543Z,99557.36
2023-04-19T09:18:33.134Z,99557.44
2023-04-19T09:20:49.582Z,99557.78
2023-04-19T09:21:53.304Z,99553.80
2023-04-19T09:23:09.097Z,99561.24
2023-04-19T09:24:11.358Z,99560.50
2023-04-19T09:25:41.845Z,99552.44
2023-04-19T09:26:30.566Z,99556.42
2023-04-19T09:27:35.766Z,99557.77
2023-04-19T09:28:39.112Z,99562.05
2023-04-19T09:29:41.695Z,99560.47
2023-04-19T09:30:58.270Z,99551.89
2023-04-19T09:31:58.357Z,99555.77
2023-04-19T09:33:01.302Z,99554.22
2023-04-19T09:34:15.910Z,99560.72
2023-04-19T09:35:18.732Z,99558.30
2023-04-19T09:36:31.606Z,99566.36
2023-04-19T09:38:49.616Z,99566.80
2023-04-19T09:39:53.130Z,99553.14
2023-04-19T09:41:10.700Z,99570.55
2023-04-19T09:42:13.137Z,99566.05
2023-04-19T09:43:53.150Z,99568.98
2023-04-19T09:45:44.583Z,99563.52
2023-04-19T09:46:51.628Z,99559.75
2023-04-19T09:48:08.105Z,99557.64
2023-04-19T09:49:33.717Z,99562.38
2023-04-19T09:50:33.690Z,99557.13
2023-04-19T09:51:48.014Z,99566.78
2023-04-19T09:52:52.691Z,99566.67
2023-04-19T09:53:56.089Z,99562.16
2023-04-19T09:55:03.102Z,99563.29
2023-04-19T09:56:09.371Z,99563.72
2023-04-19T09:57:13.791Z,99563.80
2023-04-19T09:58:17.826Z,99562.34
2023-04-19T09:59:21.597Z,99558.45
2023-04-19T10:00:25.141Z,99556.78
2023-04-19T10:01:28.970Z,99560.73
2023-04-19T10:02:32.926Z,99554.84
2023-04-19T10:03:36.656Z,99549.47
2023-04-19T10:04:59.682Z,99554.34
2023-04-19T10:05:46.433Z,99550.33
2023-04-19T10:07:19.477Z,99555.28
2023-04-19T10:07:59.850Z,99546.48
2023-04-19T10:09:04.406Z,99551.87
2023-04-19T10:10:19.104Z,99555.97
2023-04-19T10:11:17.757Z,99546.61
2023-04-19T10:12:46.292Z,99551.65
2023-04-19T10:13:29.160Z,99547.61
2023-04-19T10:14:35.558Z,99553.92
2023-04-19T10:16:43.865Z,99556.02
2023-04-19T10:17:47.557Z,99559.43
2023-04-19T10:18:52.643Z,99558.04
2023-04-19T10:20:01.533Z,99563.05
2023-04-19T10:21:07.640Z,99572.66
2023-04-19T10:22:12.126Z,99556.64
2023-04-19T10:23:14.519Z,99552.97
2023-04-19T10:24:18.965Z,99556.70
2023-04-19T10:25:25.785Z,99560.23
2023-04-19T10:26:28.377Z,99558.95
2023-04-19T10:27:34.369Z,99555.03
2023-04-19T10:28:37.427Z,99555.99
2023-04-19T10:30:07.574Z,99554.94
2023-04-19T10:32:31.062Z,99550.02
2023-04-19T10:33:36.843Z,99550.98
2023-04-19T10:34:42.988Z,99553.77
2023-04-19T10:35:46.408Z,99556.73
2023-04-19T10:36:49.809Z,99559.83
2023-04-19T10:38:13.233Z,99551.60
2023-04-19T10:39:39.568Z,99546.32
2023-04-19T10:41:00.219Z,99554.47
2023-04-19T10:42:02.716Z,99557.31
2023-04-19T10:43:14.684Z,99561.12
2023-04-19T10:44:17.077Z,99556.12
2023-04-19T10:45:34.225Z,99558.52
2023-04-19T10:46:41.885Z,99560.69
2023-04-19T10:47:45.078Z,99568.94
2023-04-19T10:49:00.840Z,99562.59
2023-04-19T10:50:04.986Z,99566.31
2023-04-19T10:51:17.399Z,99566.16
2023-04-19T10:52:29.598Z,99578.23
2023-04-19T10:53:48.461Z,99576.08
2023-04-19T10:54:55.705Z,99572.02
2023-04-19T10:55:58.431Z,99578.14
2023-04-19T10:57:06.488Z,99578.73
2023-04-19T10:58:08.781Z,99580.89
2023-04-19T10:59:17.362Z,99579.69
2023-04-19T11:00:25.329Z,99588.87
2023-04-19T11:01:40.521Z,99581.34
2023-04-19T11:02:43.870Z,99583.74
2023-04-19T11:03:50.015Z,99582.67
2023-04-19T11:04:58.250Z,99589.95
2023-04-19T11:06:19.550Z,99582.32
2023-04-19T11:07:21.848Z,99583.48
2023-04-19T11:08:25.095Z,99580.59
2023-04-19T11:09:40.974Z,99588.27
2023-04-19T11:10:44.586Z,99589.22
2023-04-19T11:11:47.288Z,99576.55
2023-04-19T11:12:51.417Z,99589.22
2023-04-19T11:13:57.264Z,99583.23
2023-04-19T11:15:00.455Z,99576.80
2023-04-19T11:16:10.023Z,99582.80
2023-04-19T11:17:18.925Z,99583.00
2023-04-19T11:18:21.165Z,99576.55
2023-04-19T11:19:23.478Z,99590.16
2023-04-19T11:20:25.816Z,99585.12
2023-04-19T11:21:30.254Z,99584.91
2023-04-19T11:22:46.778Z,99581.32
2023-04-19T11:23:51.946Z,99583.47
2023-04-19T11:24:55.448Z,99588.95
2023-04-19T11:25:58.473Z,99585.22
2023-04-19T11:27:01.426Z,99583.89
2023-04-19T11:28:03.933Z,99579.86
2023-04-19T11:29:06.244Z,99588.96
2023-04-19T11:30:11.499Z,99580.59
2023-04-19T11:31:15.179Z,99586.30
2023-04-19T11:32:21.005Z,99586.30
2023-04-19T11:33:25.126Z,99586.30
2023-04-19T11:34:27.831Z,99587.05
2023-04-19T11:35:29.956Z,99582.02
2023-04-19T11:36:33.360Z,99583.70
2023-04-19T11:37:36.754Z,99577.53
2023-04-19T11:38:40.280Z,99581.80
2023-04-19T11:39:46.936Z,99582.06
2023-04-19T11:40:53.224Z,99588.53
2023-04-19T11:41:56.365Z,99581.84
2023-04-19T11:43:00.756Z,99583.49
2023-04-19T11:44:03.124Z,99575.98
2023-04-19T11:45:13.161Z,99583.84
2023-04-19T11:46:12.301Z,99578.48
2023-04-19T11:47:15.225Z,99582.41
2023-04-19T11:48:17.607Z,99584.09
2023-04-19T11:49:30.953Z,99580.64
2023-04-19T11:50:38.681Z,99586.85
2023-04-19T11:51:43.314Z,99582.89
2023-04-19T11:52:50.548Z,99581.80
2023-04-19T11:53:52.865Z,99593.00
2023-04-19T11:54:55.157Z,99584.44
2023-04-19T11:56:06.959Z,99583.09
2023-04-19T11:57:09.752Z,99584.80
2023-04-19T11:58:28.656Z,99588.41
2023-04-19T11:59:36.918Z,99585.08
2023-04-19T12:00:39.275Z,99584.30
2023-04-19T12:01:41.986Z,99588.36
2023-04-19T12:02:47.508Z,99583.44
2023-04-19T12:03:56.097Z,99586.18
2023-04-19T12:05:02.858Z,99579.48
2023-04-19T12:06:07.896Z,99580.34
2023-04-19T12:07:10.874Z,99584.73
2023-04-19T12:08:13.170Z,99584.77
2023-04-19T12:09:18.930Z,99585.70
2023-04-19T12:10:21.918Z,99587.51
2023-04-19T12:11:28.286Z,99590.27
2023-04-19T12:12:34.060Z,99587.94
2023-04-19T12:13:37.305Z,99592.79
2023-04-19T12:14:41.548Z,99594.47
2023-04-19T12:15:47.420Z,99584.20
2023-04-19T12:17:11.673Z,99587.97
2023-04-19T12:18:14.622Z,99589.65
2023-04-19T12:19:19.805Z,99599.94
2023-04-19T12:21:47.121Z,99588.67
2023-04-19T12:22:50.311Z,99597.09
2023-04-19T12:23:56.976Z,99596.77
2023-04-19T12:24:59.520Z,99589.33
2023-04-19T12:26:06.787Z,99597.09
2023-04-19T12:27:14.699Z,99589.03
2023-04-19T12:28:17.232Z,99599.08
2023-04-19T12:29:19.852Z,99602.76
2023-04-19T12:30:22.394Z,99593.84
2023-04-19T12:31:25.371Z,99591.93
2023-04-19T12:32:28.415Z,99590.56
2023-04-19T12:33:30.821Z,99586.59
2023-04-19T12:34:33.600Z,99594.23
2023-04-19T12:35:36.923Z,99592.56
2023-04-19T12:36:39.812Z,99590.67
2023-04-19T12:37:42.590Z,99591.13
2023-04-19T12:38:45.568Z,99591.53
2023-04-19T12:39:48.337Z,99597.17
2023-04-19T12:40:50.716Z,99596.15
2023-04-19T12:41:55.058Z,99608.09
2023-04-19T12:42:58.906Z,99605.81
2023-04-19T12:44:01.989Z,99606.64
2023-04-19T12:45:05.144Z,99603.48